Airfield :
LOGIN :

Register | Disclaimer

   EN    FR    IT 

 










Legend :    VFR   Marginal VFR   IFR   Intensive IFR   Very Intensive IFR
Visi :
Ceiling :
>= 8 km
>= 3000ft
5 to 8 km
1000 to 3000 ft
1500m to 5 km
500 to 1000 ft
800 to 1500m
200 to 500 ft
< 800m
< 200 ft
Symbols :   Thunderstorms  Fog  Heavy snow  Heavy precipitations  Wind > 20 kt
SIGMETs :     Misc.  Thunderstorms  Icing  Turbulence  Mountain Waves  Volcanic Ashes






- Airport Elevation : 485 ft
- IATA code : QSA


LELL - Sabadell

CURRENT METAR :
  • 051430Z 28008KT 240V310 9999 FEW035 11/00 Q0998

EXPIRED METARs :
  • 051400Z 27006KT 230V320 9999 FEW035 11/01 Q0998
  • 051330Z 25006KT 210V290 9999 FEW035 11/00 Q0998
  • 051300Z 23007KT 190V280 9999 SCT034 11/01 Q0998
  • 051230Z 26004KT 210V350 9999 SCT034 10/01 Q0998
  • 051200Z 26005KT 230V300 9999 FEW034 11/01 Q0998

TAF TAF LELL
Valid from the 05 at 15:00 until the 06 at 15:00 UTC


051400Z 0515/0615 26005KT 9999 FEW030 TX12/0613Z TN02/0606Z
TEMPO 0600/0608 VRB03KT



MET'MAP, your aeronautical weather chart ! - Copyright ORBIFLY December 2007 - Disclaimer

ORBIFLY MET'MAP TEAM :

Programming & Development : Alexandra Zaïnal
Concept & original design : Baudouin d'Aumeries
Assistance for programming : Marc-Olivier Méhu
Technical & hardware support : Manuel Goepfert

Contact : metmap@orbifly.com




SOURCES & CREDITS :

   NOAA